sensor_id;sensor_type;location;lat;lon;timestamp;temperature;humidity
46117;DHT22;32591;48.102;11.772;2023-05-07T00:01:43;13.10;99.90
46117;DHT22;32591;48.102;11.772;2023-05-07T00:04:10;13.00;99.90
46117;DHT22;32591;48.102;11.772;2023-05-07T00:06:39;13.00;99.90
46117;DHT22;32591;48.102;11.772;2023-05-07T00:09:06;13.00;99.90
46117;DHT22;32591;48.102;11.772;2023-05-07T00:11:33;13.00;99.90
46117;DHT22;32591;48.102;11.772;2023-05-07T00:14:00;13.00;99.90
46117;DHT22;32591;48.102;11.772;2023-05-07T00:16:27;13.00;99.90
46117;DHT22;32591;48.102;11.772;2023-05-07T00:18:56;13.00;99.90
46117;DHT22;32591;48.102;11.772;2023-05-07T00:21:23;13.00;99.90
46117;DHT22;32591;48.102;11.772;2023-05-07T00:23:52;13.00;99.90
46117;DHT22;32591;48.102;11.772;2023-05-07T00:26:19;13.00;99.90
46117;DHT22;32591;48.102;11.772;2023-05-07T00:28:46;13.00;99.90
46117;DHT22;32591;48.102;11.772;2023-05-07T00:31:13;13.00;99.90
46117;DHT22;32591;48.102;11.772;2023-05-07T00:33:40;13.00;99.90
46117;DHT22;32591;48.102;11.772;2023-05-07T00:36:08;13.00;99.90
46117;DHT22;32591;48.102;11.772;2023-05-07T00:38:35;12.90;99.90
46117;DHT22;32591;48.102;11.772;2023-05-07T00:41:03;13.00;99.90
46117;DHT22;32591;48.102;11.772;2023-05-07T00:43:30;13.00;99.90
46117;DHT22;32591;48.102;11.772;2023-05-07T00:45:58;12.90;99.90
46117;DHT22;32591;48.102;11.772;2023-05-07T00:48:27;12.90;99.90
46117;DHT22;32591;48.102;11.772;2023-05-07T00:50:54;12.80;99.90
46117;DHT22;32591;48.102;11.772;2023-05-07T00:53:22;12.80;99.90
46117;DHT22;32591;48.102;11.772;2023-05-07T00:55:50;12.90;99.90
46117;DHT22;32591;48.102;11.772;2023-05-07T00:58:17;12.90;99.90
46117;DHT22;32591;48.102;11.772;2023-05-07T01:00:44;12.80;99.90
46117;DHT22;32591;48.102;11.772;2023-05-07T01:03:11;12.80;99.90
46117;DHT22;32591;48.102;11.772;2023-05-07T01:05:38;12.80;99.90
46117;DHT22;32591;48.102;11.772;2023-05-07T01:08:06;12.80;99.90
46117;DHT22;32591;48.102;11.772;2023-05-07T01:10:35;12.80;99.90
46117;DHT22;32591;48.102;11.772;2023-05-07T01:13:02;12.70;99.90
46117;DHT22;32591;48.102;11.772;2023-05-07T01:15:31;12.70;99.90
46117;DHT22;32591;48.102;11.772;2023-05-07T01:17:58;12.60;99.90
46117;DHT22;32591;48.102;11.772;2023-05-07T01:20:25;12.60;99.90
46117;DHT22;32591;48.102;11.772;2023-05-07T01:22:54;12.60;99.90
46117;DHT22;32591;48.102;11.772;2023-05-07T01:25:22;12.60;99.90
46117;DHT22;32591;48.102;11.772;2023-05-07T01:27:49;12.70;99.90
46117;DHT22;32591;48.102;11.772;2023-05-07T01:30:16;12.60;99.90
46117;DHT22;32591;48.102;11.772;2023-05-07T01:32:49;12.70;99.90
46117;DHT22;32591;48.102;11.772;2023-05-07T01:35:19;12.60;99.90
46117;DHT22;32591;48.102;11.772;2023-05-07T01:37:49;12.60;99.90
46117;DHT22;32591;48.102;11.772;2023-05-07T01:40:18;12.60;99.90
46117;DHT22;32591;48.102;11.772;2023-05-07T01:42:45;12.70;99.90
46117;DHT22;32591;48.102;11.772;2023-05-07T01:45:13;12.70;99.90
46117;DHT22;32591;48.102;11.772;2023-05-07T01:47:42;12.60;99.90
46117;DHT22;32591;48.102;11.772;2023-05-07T01:50:11;12.60;99.90
46117;DHT22;32591;48.102;11.772;2023-05-07T01:52:38;12.60;99.90
46117;DHT22;32591;48.102;11.772;2023-05-07T01:55:06;12.60;99.90
46117;DHT22;32591;48.102;11.772;2023-05-07T01:57:35;12.60;99.90
46117;DHT22;32591;48.102;11.772;2023-05-07T02:00:03;12.60;99.90
46117;DHT22;32591;48.102;11.772;2023-05-07T02:02:31;12.60;99.90
46117;DHT22;32591;48.102;11.772;2023-05-07T02:04:59;12.60;99.90
46117;DHT22;32591;48.102;11.772;2023-05-07T02:07:26;12.60;99.90
46117;DHT22;32591;48.102;11.772;2023-05-07T02:09:54;12.60;99.90
46117;DHT22;32591;48.102;11.772;2023-05-07T02:12:22;12.50;99.90
46117;DHT22;32591;48.102;11.772;2023-05-07T02:14:50;12.50;99.90
46117;DHT22;32591;48.102;11.772;2023-05-07T02:17:17;12.50;99.90
46117;DHT22;32591;48.102;11.772;2023-05-07T02:19:44;12.50;99.90
46117;DHT22;32591;48.102;11.772;2023-05-07T02:22:11;12.50;99.90
46117;DHT22;32591;48.102;11.772;2023-05-07T02:24:38;12.40;99.90
46117;DHT22;32591;48.102;11.772;2023-05-07T02:27:05;12.40;99.90
46117;DHT22;32591;48.102;11.772;2023-05-07T02:29:32;12.40;99.90
46117;DHT22;32591;48.102;11.772;2023-05-07T02:32:00;12.30;99.90
46117;DHT22;32591;48.102;11.772;2023-05-07T02:34:27;12.30;99.90
46117;DHT22;32591;48.102;11.772;2023-05-07T02:36:54;12.30;99.90
46117;DHT22;32591;48.102;11.772;2023-05-07T02:39:22;12.30;99.90
46117;DHT22;32591;48.102;11.772;2023-05-07T02:41:49;12.20;99.90
46117;DHT22;32591;48.102;11.772;2023-05-07T02:44:16;12.30;99.90
46117;DHT22;32591;48.102;11.772;2023-05-07T02:46:43;12.20;99.90
46117;DHT22;32591;48.102;11.772;2023-05-07T02:49:11;12.20;99.90
46117;DHT22;32591;48.102;11.772;2023-05-07T02:51:38;12.20;99.90
46117;DHT22;32591;48.102;11.772;2023-05-07T02:54:05;12.20;99.90
46117;DHT22;32591;48.102;11.772;2023-05-07T02:56:32;12.10;99.90
46117;DHT22;32591;48.102;11.772;2023-05-07T02:58:59;12.10;99.90
46117;DHT22;32591;48.102;11.772;2023-05-07T03:01:26;12.10;99.90
46117;DHT22;32591;48.102;11.772;2023-05-07T03:03:54;12.10;99.90
46117;DHT22;32591;48.102;11.772;2023-05-07T03:06:22;12.00;99.90
46117;DHT22;32591;48.102;11.772;2023-05-07T03:08:49;12.10;99.90
46117;DHT22;32591;48.102;11.772;2023-05-07T03:11:16;12.10;99.90
46117;DHT22;32591;48.102;11.772;2023-05-07T03:13:43;12.00;99.90
46117;DHT22;32591;48.102;11.772;2023-05-07T03:16:10;12.00;99.90
46117;DHT22;32591;48.102;11.772;2023-05-07T03:18:37;12.00;99.90
46117;DHT22;32591;48.102;11.772;2023-05-07T03:21:04;12.00;99.90
46117;DHT22;32591;48.102;11.772;2023-05-07T03:23:33;12.00;99.90
46117;DHT22;32591;48.102;11.772;2023-05-07T03:26:00;12.00;99.90
46117;DHT22;32591;48.102;11.772;2023-05-07T03:28:27;12.00;99.90
46117;DHT22;32591;48.102;11.772;2023-05-07T03:30:54;11.90;99.90
46117;DHT22;32591;48.102;11.772;2023-05-07T03:33:21;11.90;99.90
46117;DHT22;32591;48.102;11.772;2023-05-07T03:35:48;11.90;99.90
46117;DHT22;32591;48.102;11.772;2023-05-07T03:38:15;11.90;99.90
46117;DHT22;32591;48.102;11.772;2023-05-07T03:40:44;11.90;99.90
46117;DHT22;32591;48.102;11.772;2023-05-07T03:43:11;11.90;99.90
46117;DHT22;32591;48.102;11.772;2023-05-07T03:45:38;11.90;99.90
46117;DHT22;32591;48.102;11.772;2023-05-07T03:48:05;11.90;99.90
46117;DHT22;32591;48.102;11.772;2023-05-07T03:50:32;11.90;99.90
46117;DHT22;32591;48.102;11.772;2023-05-07T03:52:59;11.90;99.90
46117;DHT22;32591;48.102;11.772;2023-05-07T03:55:26;11.90;99.90
46117;DHT22;32591;48.102;11.772;2023-05-07T03:57:54;11.90;99.90
46117;DHT22;32591;48.102;11.772;2023-05-07T04:00:22;11.80;99.90
46117;DHT22;32591;48.102;11.772;2023-05-07T04:02:49;11.80;99.90
46117;DHT22;32591;48.102;11.772;2023-05-07T04:05:16;11.80;99.90
46117;DHT22;32591;48.102;11.772;2023-05-07T04:07:43;11.80;99.90
46117;DHT22;32591;48.102;11.772;2023-05-07T04:10:11;11.80;99.90
46117;DHT22;32591;48.102;11.772;2023-05-07T04:12:39;11.80;99.90
46117;DHT22;32591;48.102;11.772;2023-05-07T04:15:08;11.80;99.90
46117;DHT22;32591;48.102;11.772;2023-05-07T04:17:35;11.70;99.90
46117;DHT22;32591;48.102;11.772;2023-05-07T04:20:03;11.70;99.90
46117;DHT22;32591;48.102;11.772;2023-05-07T04:22:32;11.70;99.90
46117;DHT22;32591;48.102;11.772;2023-05-07T04:25:00;11.70;99.90
46117;DHT22;32591;48.102;11.772;2023-05-07T04:27:30;11.70;99.90
46117;DHT22;32591;48.102;11.772;2023-05-07T04:29:58;11.70;99.90
46117;DHT22;32591;48.102;11.772;2023-05-07T04:32:27;11.70;99.90
46117;DHT22;32591;48.102;11.772;2023-05-07T04:34:54;11.80;99.90
46117;DHT22;32591;48.102;11.772;2023-05-07T04:37:21;11.80;99.90
46117;DHT22;32591;48.102;11.772;2023-05-07T04:39:48;11.80;99.90
46117;DHT22;32591;48.102;11.772;2023-05-07T04:42:16;11.80;99.90
46117;DHT22;32591;48.102;11.772;2023-05-07T04:44:44;11.80;99.90
46117;DHT22;32591;48.102;11.772;2023-05-07T04:47:12;11.80;99.90
46117;DHT22;32591;48.102;11.772;2023-05-07T04:49:40;11.90;99.90
46117;DHT22;32591;48.102;11.772;2023-05-07T04:52:07;11.90;99.90
46117;DHT22;32591;48.102;11.772;2023-05-07T04:54:34;11.90;99.90
46117;DHT22;32591;48.102;11.772;2023-05-07T04:57:03;12.00;99.90
46117;DHT22;32591;48.102;11.772;2023-05-07T04:59:30;12.00;99.90
46117;DHT22;32591;48.102;11.772;2023-05-07T05:01:58;12.00;99.90
46117;DHT22;32591;48.102;11.772;2023-05-07T05:04:25;12.10;99.90
46117;DHT22;32591;48.102;11.772;2023-05-07T05:06:54;12.10;99.90
46117;DHT22;32591;48.102;11.772;2023-05-07T05:09:21;12.10;99.90
46117;DHT22;32591;48.102;11.772;2023-05-07T05:11:48;12.10;99.90
46117;DHT22;32591;48.102;11.772;2023-05-07T05:14:15;12.10;99.90
46117;DHT22;32591;48.102;11.772;2023-05-07T05:16:43;12.20;99.90
46117;DHT22;32591;48.102;11.772;2023-05-07T05:19:10;12.20;99.90
46117;DHT22;32591;48.102;11.772;2023-05-07T05:21:37;12.20;99.90
46117;DHT22;32591;48.102;11.772;2023-05-07T05:24:06;12.20;99.90
46117;DHT22;32591;48.102;11.772;2023-05-07T05:26:33;12.20;99.90
46117;DHT22;32591;48.102;11.772;2023-05-07T05:29:00;12.30;99.90
46117;DHT22;32591;48.102;11.772;2023-05-07T05:31:27;12.30;99.90
46117;DHT22;32591;48.102;11.772;2023-05-07T05:33:54;12.40;99.90
46117;DHT22;32591;48.102;11.772;2023-05-07T05:36:22;12.50;99.90
46117;DHT22;32591;48.102;11.772;2023-05-07T05:38:49;12.60;99.90
46117;DHT22;32591;48.102;11.772;2023-05-07T05:41:17;12.60;99.90
46117;DHT22;32591;48.102;11.772;2023-05-07T05:43:44;12.70;99.90
46117;DHT22;32591;48.102;11.772;2023-05-07T05:46:11;12.80;99.90
46117;DHT22;32591;48.102;11.772;2023-05-07T05:48:38;12.90;99.90
46117;DHT22;32591;48.102;11.772;2023-05-07T05:51:06;12.90;99.90
46117;DHT22;32591;48.102;11.772;2023-05-07T05:53:33;13.10;99.90
46117;DHT22;32591;48.102;11.772;2023-05-07T05:56:00;13.10;99.90
46117;DHT22;32591;48.102;11.772;2023-05-07T05:58:29;13.20;99.90
46117;DHT22;32591;48.102;11.772;2023-05-07T06:00:56;13.40;99.90
46117;DHT22;32591;48.102;11.772;2023-05-07T06:03:23;13.40;99.90
46117;DHT22;32591;48.102;11.772;2023-05-07T06:05:50;13.50;99.90
46117;DHT22;32591;48.102;11.772;2023-05-07T06:08:17;13.70;99.90
46117;DHT22;32591;48.102;11.772;2023-05-07T06:10:45;13.80;99.90
46117;DHT22;32591;48.102;11.772;2023-05-07T06:13:12;13.90;99.90
46117;DHT22;32591;48.102;11.772;2023-05-07T06:15:41;14.00;99.90
46117;DHT22;32591;48.102;11.772;2023-05-07T06:18:08;14.10;99.90
46117;DHT22;32591;48.102;11.772;2023-05-07T06:20:35;14.20;99.90
46117;DHT22;32591;48.102;11.772;2023-05-07T06:23:02;14.40;99.90
46117;DHT22;32591;48.102;11.772;2023-05-07T06:25:29;14.50;99.90
46117;DHT22;32591;48.102;11.772;2023-05-07T06:27:56;14.50;99.90
46117;DHT22;32591;48.102;11.772;2023-05-07T06:30:23;14.70;99.90
46117;DHT22;32591;48.102;11.772;2023-05-07T06:32:52;14.80;99.90
46117;DHT22;32591;48.102;11.772;2023-05-07T06:35:19;14.90;99.90
46117;DHT22;32591;48.102;11.772;2023-05-07T06:37:45;15.10;99.90
46117;DHT22;32591;48.102;11.772;2023-05-07T06:40:13;15.10;99.90
46117;DHT22;32591;48.102;11.772;2023-05-07T06:42:40;15.20;99.90
46117;DHT22;32591;48.102;11.772;2023-05-07T06:45:08;15.30;99.90
46117;DHT22;32591;48.102;11.772;2023-05-07T06:47:36;15.40;99.90
46117;DHT22;32591;48.102;11.772;2023-05-07T06:50:05;15.60;99.90
46117;DHT22;32591;48.102;11.772;2023-05-07T06:52:33;15.70;99.90
46117;DHT22;32591;48.102;11.772;2023-05-07T06:55:01;15.80;99.90
46117;DHT22;32591;48.102;11.772;2023-05-07T06:57:28;15.90;99.90
46117;DHT22;32591;48.102;11.772;2023-05-07T06:59:55;16.00;99.90
46117;DHT22;32591;48.102;11.772;2023-05-07T07:02:22;16.10;99.90
46117;DHT22;32591;48.102;11.772;2023-05-07T07:04:49;16.20;99.90
46117;DHT22;32591;48.102;11.772;2023-05-07T07:07:18;16.30;99.90
46117;DHT22;32591;48.102;11.772;2023-05-07T07:09:45;16.50;99.90
46117;DHT22;32591;48.102;11.772;2023-05-07T07:12:13;16.60;99.90
46117;DHT22;32591;48.102;11.772;2023-05-07T07:14:40;16.70;99.90
46117;DHT22;32591;48.102;11.772;2023-05-07T07:17:07;16.90;99.90
46117;DHT22;32591;48.102;11.772;2023-05-07T07:19:35;16.90;99.90
46117;DHT22;32591;48.102;11.772;2023-05-07T07:22:02;16.90;99.90
46117;DHT22;32591;48.102;11.772;2023-05-07T07:24:30;17.00;99.90
46117;DHT22;32591;48.102;11.772;2023-05-07T07:26:57;17.00;99.90
46117;DHT22;32591;48.102;11.772;2023-05-07T07:29:24;17.10;99.90
46117;DHT22;32591;48.102;11.772;2023-05-07T07:31:52;17.20;99.90
46117;DHT22;32591;48.102;11.772;2023-05-07T07:34:19;17.20;99.90
46117;DHT22;32591;48.102;11.772;2023-05-07T07:36:46;17.30;99.90
46117;DHT22;32591;48.102;11.772;2023-05-07T07:39:13;17.40;99.90
46117;DHT22;32591;48.102;11.772;2023-05-07T07:41:41;17.40;99.90
46117;DHT22;32591;48.102;11.772;2023-05-07T07:44:08;17.50;99.90
46117;DHT22;32591;48.102;11.772;2023-05-07T07:46:38;17.70;99.90
46117;DHT22;32591;48.102;11.772;2023-05-07T07:49:05;17.90;99.90
46117;DHT22;32591;48.102;11.772;2023-05-07T07:51:32;18.00;99.90
46117;DHT22;32591;48.102;11.772;2023-05-07T07:53:59;18.10;99.90
46117;DHT22;32591;48.102;11.772;2023-05-07T07:56:28;18.10;99.90
46117;DHT22;32591;48.102;11.772;2023-05-07T07:58:56;18.20;99.90
46117;DHT22;32591;48.102;11.772;2023-05-07T08:01:23;18.40;99.90
46117;DHT22;32591;48.102;11.772;2023-05-07T08:03:51;18.70;99.90
46117;DHT22;32591;48.102;11.772;2023-05-07T08:06:18;18.80;99.90
46117;DHT22;32591;48.102;11.772;2023-05-07T08:08:46;18.90;99.90
46117;DHT22;32591;48.102;11.772;2023-05-07T08:11:13;19.10;99.90
46117;DHT22;32591;48.102;11.772;2023-05-07T08:13:40;19.10;99.90
46117;DHT22;32591;48.102;11.772;2023-05-07T08:16:09;19.10;99.90
46117;DHT22;32591;48.102;11.772;2023-05-07T08:18:36;19.20;99.90
46117;DHT22;32591;48.102;11.772;2023-05-07T08:21:04;19.30;99.90
46117;DHT22;32591;48.102;11.772;2023-05-07T08:23:31;19.40;99.90
46117;DHT22;32591;48.102;11.772;2023-05-07T08:26:00;19.30;99.90
46117;DHT22;32591;48.102;11.772;2023-05-07T08:28:27;19.40;99.90
46117;DHT22;32591;48.102;11.772;2023-05-07T08:30:54;19.50;99.90
46117;DHT22;32591;48.102;11.772;2023-05-07T08:33:23;19.60;99.90
46117;DHT22;32591;48.102;11.772;2023-05-07T08:35:50;19.80;99.90
46117;DHT22;32591;48.102;11.772;2023-05-07T08:38:17;19.90;99.90
46117;DHT22;32591;48.102;11.772;2023-05-07T08:40:44;20.00;99.90
46117;DHT22;32591;48.102;11.772;2023-05-07T08:43:13;20.10;99.90
46117;DHT22;32591;48.102;11.772;2023-05-07T08:45:41;20.30;99.90
46117;DHT22;32591;48.102;11.772;2023-05-07T08:48:13;20.40;99.90
46117;DHT22;32591;48.102;11.772;2023-05-07T08:50:43;20.40;99.90
46117;DHT22;32591;48.102;11.772;2023-05-07T08:53:10;20.50;99.90
46117;DHT22;32591;48.102;11.772;2023-05-07T08:55:37;20.50;99.90
46117;DHT22;32591;48.102;11.772;2023-05-07T08:58:04;20.50;99.90
46117;DHT22;32591;48.102;11.772;2023-05-07T09:00:31;20.60;99.90
46117;DHT22;32591;48.102;11.772;2023-05-07T09:03:00;20.70;99.90
46117;DHT22;32591;48.102;11.772;2023-05-07T09:05:28;20.80;99.90
46117;DHT22;32591;48.102;11.772;2023-05-07T09:07:58;20.90;99.90
46117;DHT22;32591;48.102;11.772;2023-05-07T09:10:26;21.00;99.90
46117;DHT22;32591;48.102;11.772;2023-05-07T09:12:53;21.00;99.60
46117;DHT22;32591;48.102;11.772;2023-05-07T09:15:20;21.10;99.20
46117;DHT22;32591;48.102;11.772;2023-05-07T09:17:47;21.30;99.80
46117;DHT22;32591;48.102;11.772;2023-05-07T09:20:16;21.40;98.50
46117;DHT22;32591;48.102;11.772;2023-05-07T09:22:43;21.40;97.80
46117;DHT22;32591;48.102;11.772;2023-05-07T09:25:12;21.40;97.10
46117;DHT22;32591;48.102;11.772;2023-05-07T09:27:40;21.50;97.90
46117;DHT22;32591;48.102;11.772;2023-05-07T09:30:09;21.50;97.60
46117;DHT22;32591;48.102;11.772;2023-05-07T09:32:37;21.50;98.40
46117;DHT22;32591;48.102;11.772;2023-05-07T09:35:05;21.50;97.90
46117;DHT22;32591;48.102;11.772;2023-05-07T09:37:33;21.50;98.60
46117;DHT22;32591;48.102;11.772;2023-05-07T09:40:00;21.60;97.80
46117;DHT22;32591;48.102;11.772;2023-05-07T09:42:29;21.70;97.60
46117;DHT22;32591;48.102;11.772;2023-05-07T09:44:56;21.70;98.00
46117;DHT22;32591;48.102;11.772;2023-05-07T09:47:24;21.80;98.60
46117;DHT22;32591;48.102;11.772;2023-05-07T09:49:56;21.90;97.50
46117;DHT22;32591;48.102;11.772;2023-05-07T09:52:24;21.80;97.20
46117;DHT22;32591;48.102;11.772;2023-05-07T09:54:55;21.80;97.40
46117;DHT22;32591;48.102;11.772;2023-05-07T09:57:25;21.50;98.00
46117;DHT22;32591;48.102;11.772;2023-05-07T09:59:56;21.20;98.40
46117;DHT22;32591;48.102;11.772;2023-05-07T10:02:27;21.00;98.70
46117;DHT22;32591;48.102;11.772;2023-05-07T10:04:56;21.10;98.70
46117;DHT22;32591;48.102;11.772;2023-05-07T10:07:26;21.00;99.50
46117;DHT22;32591;48.102;11.772;2023-05-07T10:09:53;20.90;99.30
46117;DHT22;32591;48.102;11.772;2023-05-07T10:12:21;20.90;98.60
46117;DHT22;32591;48.102;11.772;2023-05-07T10:14:50;20.90;98.60
46117;DHT22;32591;48.102;11.772;2023-05-07T10:17:20;20.90;98.50
46117;DHT22;32591;48.102;11.772;2023-05-07T10:19:47;20.80;98.20
46117;DHT22;32591;48.102;11.772;2023-05-07T10:22:16;20.80;98.40
46117;DHT22;32591;48.102;11.772;2023-05-07T10:24:45;21.00;98.40
46117;DHT22;32591;48.102;11.772;2023-05-07T10:27:16;21.30;98.10
46117;DHT22;32591;48.102;11.772;2023-05-07T10:29:52;21.60;97.80
46117;DHT22;32591;48.102;11.772;2023-05-07T10:32:35;21.80;95.90
46117;DHT22;32591;48.102;11.772;2023-05-07T10:35:10;21.90;96.30
46117;DHT22;32591;48.102;11.772;2023-05-07T10:37:41;21.90;95.90
46117;DHT22;32591;48.102;11.772;2023-05-07T10:40:10;22.00;95.10
46117;DHT22;32591;48.102;11.772;2023-05-07T10:42:38;22.00;94.10
46117;DHT22;32591;48.102;11.772;2023-05-07T10:45:15;22.10;94.60
46117;DHT22;32591;48.102;11.772;2023-05-07T10:48:11;22.10;93.60
46117;DHT22;32591;48.102;11.772;2023-05-07T10:50:40;22.20;93.20
46117;DHT22;32591;48.102;11.772;2023-05-07T10:53:24;22.10;93.10
46117;DHT22;32591;48.102;11.772;2023-05-07T10:56:26;22.00;93.50
46117;DHT22;32591;48.102;11.772;2023-05-07T10:58:53;22.00;93.60
46117;DHT22;32591;48.102;11.772;2023-05-07T11:01:50;22.00;93.80
46117;DHT22;32591;48.102;11.772;2023-05-07T11:04:19;22.00;94.60
46117;DHT22;32591;48.102;11.772;2023-05-07T11:07:25;22.10;95.40
46117;DHT22;32591;48.102;11.772;2023-05-07T11:10:05;22.10;95.70
46117;DHT22;32591;48.102;11.772;2023-05-07T11:12:53;22.10;96.40
46117;DHT22;32591;48.102;11.772;2023-05-07T11:15:39;22.10;96.50
46117;DHT22;32591;48.102;11.772;2023-05-07T11:18:16;22.10;96.20
46117;DHT22;32591;48.102;11.772;2023-05-07T11:20:48;22.30;95.30
46117;DHT22;32591;48.102;11.772;2023-05-07T11:26:45;22.50;95.30
46117;DHT22;32591;48.102;11.772;2023-05-07T11:29:15;22.60;95.00
46117;DHT22;32591;48.102;11.772;2023-05-07T11:31:48;22.60;94.80
46117;DHT22;32591;48.102;11.772;2023-05-07T11:34:22;22.60;94.80
46117;DHT22;32591;48.102;11.772;2023-05-07T11:36:50;22.60;95.40
46117;DHT22;32591;48.102;11.772;2023-05-07T11:39:26;22.40;94.70
46117;DHT22;32591;48.102;11.772;2023-05-07T11:41:54;22.40;94.20
46117;DHT22;32591;48.102;11.772;2023-05-07T11:44:22;22.40;94.20
46117;DHT22;32591;48.102;11.772;2023-05-07T11:46:49;22.50;94.40
46117;DHT22;32591;48.102;11.772;2023-05-07T11:49:17;22.70;94.70
46117;DHT22;32591;48.102;11.772;2023-05-07T11:51:48;22.80;93.80
46117;DHT22;32591;48.102;11.772;2023-05-07T11:54:17;22.90;94.50
46117;DHT22;32591;48.102;11.772;2023-05-07T11:56:44;23.00;94.20
46117;DHT22;32591;48.102;11.772;2023-05-07T11:59:17;22.90;94.30
46117;DHT22;32591;48.102;11.772;2023-05-07T12:01:46;22.80;93.70
46117;DHT22;32591;48.102;11.772;2023-05-07T12:04:20;22.90;94.60
46117;DHT22;32591;48.102;11.772;2023-05-07T12:06:49;23.00;93.90
46117;DHT22;32591;48.102;11.772;2023-05-07T12:09:22;23.10;93.20
46117;DHT22;32591;48.102;11.772;2023-05-07T12:11:52;23.10;93.80
46117;DHT22;32591;48.102;11.772;2023-05-07T12:14:19;23.20;93.30
46117;DHT22;32591;48.102;11.772;2023-05-07T12:16:47;23.10;94.00
46117;DHT22;32591;48.102;11.772;2023-05-07T12:19:16;23.00;93.30
46117;DHT22;32591;48.102;11.772;2023-05-07T12:21:43;23.20;93.40
46117;DHT22;32591;48.102;11.772;2023-05-07T12:24:14;23.20;93.10
46117;DHT22;32591;48.102;11.772;2023-05-07T12:26:43;23.20;92.20
46117;DHT22;32591;48.102;11.772;2023-05-07T12:29:11;23.20;92.70
46117;DHT22;32591;48.102;11.772;2023-05-07T12:31:40;23.30;92.20
46117;DHT22;32591;48.102;11.772;2023-05-07T12:34:07;23.50;94.60
46117;DHT22;32591;48.102;11.772;2023-05-07T12:36:38;23.50;92.40
46117;DHT22;32591;48.102;11.772;2023-05-07T12:39:06;23.50;93.70
46117;DHT22;32591;48.102;11.772;2023-05-07T12:41:52;23.50;92.20
46117;DHT22;32591;48.102;11.772;2023-05-07T12:44:22;23.70;91.60
46117;DHT22;32591;48.102;11.772;2023-05-07T12:46:50;23.60;91.80
46117;DHT22;32591;48.102;11.772;2023-05-07T12:49:17;23.60;91.40
46117;DHT22;32591;48.102;11.772;2023-05-07T12:51:44;23.50;91.10
46117;DHT22;32591;48.102;11.772;2023-05-07T12:54:13;23.50;91.90
46117;DHT22;32591;48.102;11.772;2023-05-07T12:56:41;23.60;91.40
46117;DHT22;32591;48.102;11.772;2023-05-07T12:59:08;23.70;91.30
46117;DHT22;32591;48.102;11.772;2023-05-07T13:01:35;23.60;90.80
46117;DHT22;32591;48.102;11.772;2023-05-07T13:04:03;23.60;90.50
46117;DHT22;32591;48.102;11.772;2023-05-07T13:06:31;23.50;90.20
46117;DHT22;32591;48.102;11.772;2023-05-07T13:08:58;23.30;90.20
46117;DHT22;32591;48.102;11.772;2023-05-07T13:11:25;23.30;90.30
46117;DHT22;32591;48.102;11.772;2023-05-07T13:13:53;23.40;90.00
46117;DHT22;32591;48.102;11.772;2023-05-07T13:16:20;23.40;89.70
46117;DHT22;32591;48.102;11.772;2023-05-07T13:18:47;23.50;86.90
46117;DHT22;32591;48.102;11.772;2023-05-07T13:21:14;23.50;87.00
46117;DHT22;32591;48.102;11.772;2023-05-07T13:23:41;23.40;87.80
46117;DHT22;32591;48.102;11.772;2023-05-07T13:26:08;23.50;88.30
46117;DHT22;32591;48.102;11.772;2023-05-07T13:28:35;23.50;88.30
46117;DHT22;32591;48.102;11.772;2023-05-07T13:31:04;23.40;86.90
46117;DHT22;32591;48.102;11.772;2023-05-07T13:33:31;23.40;89.10
46117;DHT22;32591;48.102;11.772;2023-05-07T13:35:58;23.50;85.60
46117;DHT22;32591;48.102;11.772;2023-05-07T13:38:26;23.50;87.10
46117;DHT22;32591;48.102;11.772;2023-05-07T13:40:53;23.60;85.90
46117;DHT22;32591;48.102;11.772;2023-05-07T13:43:20;23.50;84.20
46117;DHT22;32591;48.102;11.772;2023-05-07T13:45:47;23.60;83.50
46117;DHT22;32591;48.102;11.772;2023-05-07T13:48:15;23.60;83.20
46117;DHT22;32591;48.102;11.772;2023-05-07T13:50:42;23.80;85.90
46117;DHT22;32591;48.102;11.772;2023-05-07T13:53:09;24.10;84.10
46117;DHT22;32591;48.102;11.772;2023-05-07T13:55:36;24.10;86.90
46117;DHT22;32591;48.102;11.772;2023-05-07T13:58:03;24.20;83.10
46117;DHT22;32591;48.102;11.772;2023-05-07T14:00:30;24.20;83.80
46117;DHT22;32591;48.102;11.772;2023-05-07T14:02:57;24.20;80.10
46117;DHT22;32591;48.102;11.772;2023-05-07T14:05:26;23.90;80.00
46117;DHT22;32591;48.102;11.772;2023-05-07T14:07:53;23.50;80.30
46117;DHT22;32591;48.102;11.772;2023-05-07T14:10:20;23.30;82.10
46117;DHT22;32591;48.102;11.772;2023-05-07T14:12:47;23.20;82.70
46117;DHT22;32591;48.102;11.772;2023-05-07T14:15:14;23.00;82.70
46117;DHT22;32591;48.102;11.772;2023-05-07T14:17:42;23.00;83.40
46117;DHT22;32591;48.102;11.772;2023-05-07T14:20:10;23.10;83.60
46117;DHT22;32591;48.102;11.772;2023-05-07T14:22:39;23.00;83.80
46117;DHT22;32591;48.102;11.772;2023-05-07T14:25:07;22.90;84.20
46117;DHT22;32591;48.102;11.772;2023-05-07T14:27:35;22.80;84.40
46117;DHT22;32591;48.102;11.772;2023-05-07T14:30:02;22.80;84.00
46117;DHT22;32591;48.102;11.772;2023-05-07T14:32:29;22.70;83.90
46117;DHT22;32591;48.102;11.772;2023-05-07T14:34:56;22.70;84.00
46117;DHT22;32591;48.102;11.772;2023-05-07T14:37:23;22.60;84.40
46117;DHT22;32591;48.102;11.772;2023-05-07T14:39:52;22.60;87.40
46117;DHT22;32591;48.102;11.772;2023-05-07T14:42:19;22.50;87.90
46117;DHT22;32591;48.102;11.772;2023-05-07T14:44:46;22.40;88.60
46117;DHT22;32591;48.102;11.772;2023-05-07T14:47:13;22.50;88.20
46117;DHT22;32591;48.102;11.772;2023-05-07T14:49:42;22.60;86.80
46117;DHT22;32591;48.102;11.772;2023-05-07T14:52:09;22.50;88.10
46117;DHT22;32591;48.102;11.772;2023-05-07T14:54:37;22.50;87.70
46117;DHT22;32591;48.102;11.772;2023-05-07T14:57:06;22.40;86.60
46117;DHT22;32591;48.102;11.772;2023-05-07T14:59:39;22.40;88.90
46117;DHT22;32591;48.102;11.772;2023-05-07T15:02:07;22.20;89.80
46117;DHT22;32591;48.102;11.772;2023-05-07T15:04:34;22.10;88.10
46117;DHT22;32591;48.102;11.772;2023-05-07T15:07:01;22.10;88.70
46117;DHT22;32591;48.102;11.772;2023-05-07T15:09:29;22.10;90.10
46117;DHT22;32591;48.102;11.772;2023-05-07T15:11:56;22.10;89.40
46117;DHT22;32591;48.102;11.772;2023-05-07T15:14:24;22.00;88.60
46117;DHT22;32591;48.102;11.772;2023-05-07T15:16:51;21.90;89.30
46117;DHT22;32591;48.102;11.772;2023-05-07T15:19:21;21.80;90.20
46117;DHT22;32591;48.102;11.772;2023-05-07T15:21:50;21.90;89.90
46117;DHT22;32591;48.102;11.772;2023-05-07T15:24:17;21.90;90.00
46117;DHT22;32591;48.102;11.772;2023-05-07T15:26:44;21.90;90.20